createdAt,value
2024-02-24T00:00:25.140Z,8.75
2024-02-24T00:02:51.708Z,8.32
2024-02-24T00:05:18.531Z,4.65
2024-02-24T00:07:45.094Z,7.90
2024-02-24T00:10:12.276Z,4.95
2024-02-24T00:12:38.845Z,7.43
2024-02-24T00:15:06.188Z,4.35
2024-02-24T00:17:32.747Z,6.75
2024-02-24T00:19:59.384Z,5.43
2024-02-24T00:22:25.905Z,5.40
2024-02-24T00:24:52.432Z,9.50
2024-02-24T00:27:18.927Z,4.28
2024-02-24T00:29:45.499Z,6.53
2024-02-24T00:32:12.179Z,5.45
2024-02-24T00:34:38.804Z,3.28
2024-02-24T00:37:05.604Z,4.65
2024-02-24T00:39:32.116Z,7.05
2024-02-24T00:41:58.641Z,6.93
2024-02-24T00:44:25.210Z,4.70
2024-02-24T00:46:51.816Z,5.95
2024-02-24T00:49:19.280Z,8.60
2024-02-24T00:51:45.947Z,4.15
2024-02-24T00:54:12.515Z,3.63
2024-02-24T00:56:39.191Z,6.32
2024-02-24T00:59:06.342Z,5.43
2024-02-24T01:01:33.194Z,3.92
2024-02-24T01:03:59.919Z,5.85
2024-02-24T01:06:26.474Z,6.38
2024-02-24T01:08:53.055Z,6.72
2024-02-24T01:11:19.720Z,4.97
2024-02-24T01:13:46.423Z,3.00
2024-02-24T01:16:13.011Z,4.38
2024-02-24T01:18:39.634Z,6.10
2024-02-24T01:21:06.389Z,5.72
2024-02-24T01:23:34.043Z,4.38
2024-02-24T01:26:00.730Z,5.40
2024-02-24T01:28:27.251Z,8.07
2024-02-24T01:30:53.728Z,4.38
2024-02-24T01:33:20.334Z,7.35
2024-02-24T01:35:47.132Z,4.20
2024-02-24T01:38:13.739Z,4.45
2024-02-24T01:40:40.315Z,5.72
2024-02-24T01:43:23.580Z,8.27
2024-02-24T01:45:50.206Z,4.65
2024-02-24T01:48:17.195Z,3.25
2024-02-24T01:50:46.490Z,7.45
2024-02-24T01:53:13.668Z,4.93
2024-02-24T01:55:40.391Z,7.63
2024-02-24T01:58:09.090Z,5.45
2024-02-24T02:00:35.813Z,6.63
2024-02-24T02:03:02.928Z,8.15
2024-02-24T02:05:30.225Z,6.05
2024-02-24T02:07:57.012Z,4.68
2024-02-24T02:10:23.641Z,5.78
2024-02-24T02:12:50.383Z,4.63
2024-02-24T02:15:17.073Z,4.35
2024-02-24T02:17:43.896Z,4.93
2024-02-24T02:20:10.631Z,3.83
2024-02-24T02:22:37.463Z,5.38
2024-02-24T02:25:04.310Z,4.90
2024-02-24T02:27:30.945Z,2.72
2024-02-24T02:30:01.118Z,5.18
2024-02-24T02:32:27.860Z,4.60
2024-02-24T02:34:54.448Z,8.40
2024-02-24T02:37:20.954Z,5.00
2024-02-24T02:39:47.461Z,5.63
2024-02-24T02:42:13.996Z,6.57
2024-02-24T02:44:40.760Z,5.13
2024-02-24T02:47:14.908Z,10.20
2024-02-24T02:49:46.408Z,4.88
2024-02-24T02:52:13.076Z,7.13
2024-02-24T02:54:39.653Z,7.40
2024-02-24T02:57:06.216Z,6.18
2024-02-24T02:59:36.661Z,7.57
2024-02-24T03:02:03.330Z,5.75
2024-02-24T03:04:29.919Z,3.00
2024-02-24T03:06:56.527Z,6.45
2024-02-24T03:09:23.052Z,3.42
2024-02-24T03:11:49.731Z,6.15
2024-02-24T03:14:16.392Z,3.83
2024-02-24T03:16:42.970Z,5.22
2024-02-24T03:19:10.205Z,3.97
2024-02-24T03:21:37.052Z,4.60
2024-02-24T03:24:03.815Z,5.93
2024-02-24T03:26:30.437Z,7.55
2024-02-24T03:28:57.073Z,6.03
2024-02-24T03:31:23.716Z,5.38
2024-02-24T03:33:50.545Z,5.72
2024-02-24T03:36:19.290Z,2.75
2024-02-24T03:38:46.557Z,5.38
2024-02-24T03:41:13.476Z,8.32
2024-02-24T03:43:40.262Z,4.47
2024-02-24T03:46:07.816Z,6.03
2024-02-24T03:48:34.814Z,5.07
2024-02-24T03:51:02.041Z,5.45
2024-02-24T03:53:32.161Z,4.47
2024-02-24T03:55:58.890Z,5.65
2024-02-24T03:58:25.587Z,4.50
2024-02-24T04:00:52.897Z,5.03
2024-02-24T04:03:19.897Z,3.35
2024-02-24T04:05:47.718Z,5.00
2024-02-24T04:08:14.990Z,8.75
2024-02-24T04:10:45.800Z,3.10
2024-02-24T04:13:12.537Z,3.15
2024-02-24T04:15:39.088Z,4.50
2024-02-24T04:18:06.138Z,4.95
2024-02-24T04:20:33.137Z,2.95
2024-02-24T04:22:59.733Z,4.10
2024-02-24T04:25:26.306Z,5.70
2024-02-24T04:27:52.917Z,5.13
2024-02-24T04:30:19.409Z,3.70
2024-02-24T04:32:46.121Z,2.63
2024-02-24T04:35:12.795Z,4.53
2024-02-24T04:37:40.772Z,4.00
2024-02-24T04:40:08.902Z,3.55
2024-02-24T04:42:35.400Z,3.78
2024-02-24T04:45:02.029Z,6.22
2024-02-24T04:47:29.803Z,3.45
2024-02-24T04:49:56.887Z,4.57
2024-02-24T04:52:23.419Z,3.05
2024-02-24T04:54:50.006Z,4.75
2024-02-24T04:57:16.581Z,4.72
2024-02-24T04:59:43.345Z,4.10
2024-02-24T05:02:09.934Z,3.38
2024-02-24T05:04:36.503Z,3.55
2024-02-24T05:07:03.157Z,2.85
2024-02-24T05:09:29.924Z,1.98
2024-02-24T05:11:56.994Z,3.67
2024-02-24T05:14:23.626Z,5.32
2024-02-24T05:16:50.200Z,2.85
2024-02-24T05:19:16.830Z,6.25
2024-02-24T05:21:45.490Z,3.08
2024-02-24T05:24:12.060Z,4.13
2024-02-24T05:26:38.878Z,3.30
2024-02-24T05:29:05.512Z,3.03
2024-02-24T05:31:32.092Z,2.30
2024-02-24T05:33:58.865Z,5.15
2024-02-24T05:36:25.539Z,5.20
2024-02-24T05:38:52.098Z,1.65
2024-02-24T05:41:18.783Z,1.80
2024-02-24T05:43:45.320Z,3.95
2024-02-24T05:46:17.260Z,3.10
2024-02-24T05:48:43.987Z,2.80
2024-02-24T05:51:11.749Z,4.53
2024-02-24T05:53:38.951Z,2.03
2024-02-24T05:56:05.915Z,2.75
2024-02-24T05:58:32.672Z,3.13
2024-02-24T06:01:00.116Z,2.53
2024-02-24T06:03:27.349Z,3.30
2024-02-24T06:05:54.166Z,3.33
2024-02-24T06:08:21.061Z,2.55
2024-02-24T06:10:50.652Z,3.15
2024-02-24T06:13:17.240Z,4.15
2024-02-24T06:15:43.763Z,2.63
2024-02-24T06:18:10.794Z,2.70
2024-02-24T06:20:37.664Z,3.08
2024-02-24T06:23:04.549Z,1.88
2024-02-24T06:25:31.809Z,2.97
2024-02-24T06:27:59.421Z,4.93
2024-02-24T06:30:26.056Z,3.33
2024-02-24T06:32:52.682Z,2.40
2024-02-24T06:35:19.395Z,3.50
2024-02-24T06:37:46.041Z,4.65
2024-02-24T06:40:14.792Z,2.80
2024-02-24T06:42:42.795Z,11.13
2024-02-24T06:45:09.518Z,5.85
2024-02-24T06:47:36.126Z,2.88
2024-02-24T06:50:02.790Z,4.20
2024-02-24T06:52:29.364Z,3.47
2024-02-24T06:54:56.112Z,3.25
2024-02-24T06:57:22.749Z,3.80
2024-02-24T06:59:49.502Z,2.85
2024-02-24T07:02:16.358Z,2.88
2024-02-24T07:04:43.716Z,2.22
2024-02-24T07:07:10.711Z,3.75
2024-02-24T07:09:37.613Z,2.55
2024-02-24T07:12:04.632Z,3.05
2024-02-24T07:14:31.827Z,1.40
2024-02-24T07:16:58.459Z,1.70
2024-02-24T07:19:26.559Z,1.70
2024-02-24T07:21:53.203Z,1.42
2024-02-24T07:24:19.780Z,1.95
2024-02-24T07:26:50.311Z,1.70
2024-02-24T07:29:17.608Z,1.30
2024-02-24T07:31:44.232Z,2.30
2024-02-24T07:34:11.784Z,2.92
2024-02-24T07:36:38.517Z,3.58
2024-02-24T07:39:07.993Z,1.92
2024-02-24T07:41:34.544Z,2.03
2024-02-24T07:44:01.120Z,1.10
2024-02-24T07:46:30.846Z,2.30
2024-02-24T07:48:58.504Z,1.73
2024-02-24T07:51:26.117Z,1.67
2024-02-24T07:53:53.413Z,1.83
2024-02-24T07:56:21.842Z,0.93
2024-02-24T07:58:49.291Z,1.45
2024-02-24T08:01:16.312Z,1.30
2024-02-24T08:03:42.978Z,1.40
2024-02-24T08:06:09.695Z,0.80
2024-02-24T08:08:37.783Z,1.25
2024-02-24T08:11:05.914Z,1.17
2024-02-24T08:13:33.242Z,1.17
2024-02-24T08:16:05.170Z,0.82
2024-02-24T08:18:32.301Z,2.00
2024-02-24T08:21:00.526Z,3.38
2024-02-24T08:23:27.665Z,3.22
2024-02-24T08:25:56.505Z,0.73
2024-02-24T08:28:24.591Z,0.60
2024-02-24T08:30:51.126Z,0.52
2024-02-24T08:33:19.402Z,0.45
2024-02-24T08:35:46.630Z,1.63
2024-02-24T08:38:14.777Z,1.67
2024-02-24T08:40:47.324Z,0.55
2024-02-24T08:43:16.689Z,0.63
2024-02-24T08:45:43.533Z,0.75
2024-02-24T08:48:13.600Z,1.38
2024-02-24T08:50:41.553Z,0.80
2024-02-24T08:53:08.271Z,0.70
2024-02-24T08:55:34.934Z,0.57
2024-02-24T08:58:01.611Z,0.90
2024-02-24T09:00:28.277Z,0.75
2024-02-24T09:02:55.041Z,2.03
2024-02-24T09:05:22.014Z,2.85
2024-02-24T09:07:48.810Z,1.08
2024-02-24T09:10:15.598Z,0.70
2024-02-24T09:12:42.241Z,0.90
2024-02-24T09:15:09.207Z,1.67
2024-02-24T09:17:36.040Z,1.15
2024-02-24T09:20:02.855Z,0.80
2024-02-24T09:22:29.413Z,1.10
2024-02-24T09:24:56.024Z,0.63
2024-02-24T09:27:22.597Z,0.98
2024-02-24T09:29:49.221Z,1.58
2024-02-24T09:32:18.814Z,1.48
2024-02-24T09:34:46.229Z,0.65
2024-02-24T09:37:13.188Z,1.10
2024-02-24T09:39:43.720Z,2.08
2024-02-24T09:42:11.254Z,1.02
2024-02-24T09:44:39.856Z,3.83
2024-02-24T09:47:07.075Z,0.85
2024-02-24T09:49:33.871Z,1.55
2024-02-24T09:52:00.942Z,1.73
2024-02-24T09:54:29.010Z,2.55
2024-02-24T09:56:56.468Z,0.77
2024-02-24T09:59:24.226Z,0.70
2024-02-24T10:01:51.480Z,1.20
2024-02-24T10:04:19.118Z,2.53
2024-02-24T10:06:45.684Z,1.63
2024-02-24T10:09:13.289Z,1.85
2024-02-24T10:11:41.339Z,1.88
2024-02-24T10:14:08.558Z,0.98
2024-02-24T10:16:38.301Z,0.73
2024-02-24T10:19:08.593Z,1.10
2024-02-24T10:21:35.580Z,0.63
2024-02-24T10:24:03.870Z,1.77
2024-02-24T10:26:31.014Z,0.93
2024-02-24T10:28:58.211Z,3.08
2024-02-24T10:31:27.884Z,1.65
2024-02-24T10:33:55.163Z,0.82
2024-02-24T10:36:22.642Z,0.93
2024-02-24T10:38:55.389Z,1.67
2024-02-24T10:41:25.751Z,0.70
2024-02-24T10:44:02.585Z,2.40
2024-02-24T10:46:37.308Z,0.93
2024-02-24T10:49:05.231Z,0.60
2024-02-24T10:51:37.970Z,0.75
2024-02-24T10:54:13.699Z,1.10
2024-02-24T10:56:42.191Z,0.93
2024-02-24T10:59:12.635Z,0.88
2024-02-24T11:01:44.608Z,1.33
2024-02-24T11:04:13.317Z,1.10
2024-02-24T11:06:50.608Z,0.93
2024-02-24T11:09:26.448Z,0.60
2024-02-24T11:12:04.314Z,0.85
2024-02-24T11:14:33.906Z,0.50
2024-02-24T11:17:00.507Z,1.88
2024-02-24T11:19:45.426Z,0.25
2024-02-24T11:22:31.784Z,1.27
2024-02-24T11:25:02.861Z,0.57
2024-02-24T11:27:35.728Z,0.40
2024-02-24T11:30:36.305Z,1.55
2024-02-24T11:33:22.267Z,0.65
2024-02-24T11:35:51.070Z,1.45
2024-02-24T11:38:22.142Z,2.15
2024-02-24T11:40:49.389Z,0.77
2024-02-24T11:43:20.105Z,1.23
2024-02-24T11:45:48.028Z,0.30
2024-02-24T11:48:15.862Z,0.30
2024-02-24T11:50:43.526Z,0.28
2024-02-24T11:53:20.235Z,1.65
2024-02-24T11:55:48.256Z,0.95
2024-02-24T11:58:16.219Z,3.55
2024-02-24T12:00:42.937Z,0.35
2024-02-24T12:03:14.799Z,0.68
2024-02-24T12:05:42.161Z,4.40
2024-02-24T12:08:12.168Z,0.70
2024-02-24T12:10:40.238Z,2.97
2024-02-24T12:13:09.575Z,1.15
2024-02-24T12:15:39.634Z,2.75
2024-02-24T12:18:07.697Z,0.20
2024-02-24T12:20:49.209Z,0.30
2024-02-24T12:23:17.797Z,0.63
2024-02-24T12:25:47.441Z,0.98
2024-02-24T12:28:14.134Z,0.47
2024-02-24T12:30:42.094Z,1.10
2024-02-24T12:33:17.715Z,3.03
2024-02-24T12:35:48.350Z,0.40
2024-02-24T12:38:19.293Z,1.95
2024-02-24T12:40:46.416Z,1.00
2024-02-24T12:43:13.314Z,1.48
2024-02-24T12:45:40.205Z,0.98
2024-02-24T12:48:08.089Z,0.38
2024-02-24T12:50:35.143Z,0.38
2024-02-24T12:53:05.085Z,1.35
2024-02-24T12:55:31.781Z,0.98
2024-02-24T12:57:58.387Z,0.80
2024-02-24T13:00:25.122Z,0.40
2024-02-24T13:02:52.632Z,1.17
2024-02-24T13:05:19.600Z,1.02
2024-02-24T13:07:46.794Z,0.52
2024-02-24T13:10:14.270Z,0.55
2024-02-24T13:12:40.867Z,1.27
2024-02-24T13:15:07.818Z,0.55
2024-02-24T13:17:34.479Z,1.02
2024-02-24T13:20:02.212Z,2.17
2024-02-24T13:22:29.633Z,1.25
2024-02-24T13:24:56.278Z,0.77
2024-02-24T13:27:22.869Z,1.17
2024-02-24T13:29:49.606Z,1.88
2024-02-24T13:32:16.265Z,1.05
2024-02-24T13:34:43.036Z,1.95
2024-02-24T13:37:10.839Z,2.25
2024-02-24T13:39:37.500Z,2.80
2024-02-24T13:42:04.402Z,4.03
2024-02-24T13:44:31.149Z,1.05
2024-02-24T13:46:57.720Z,1.67
2024-02-24T13:49:25.822Z,0.90
2024-02-24T13:51:52.639Z,0.57
2024-02-24T13:54:19.293Z,0.75
2024-02-24T13:56:47.623Z,0.57
2024-02-24T13:59:14.297Z,1.35
2024-02-24T14:01:40.915Z,2.75
2024-02-24T14:04:07.578Z,2.00
2024-02-24T14:06:35.401Z,1.40
2024-02-24T14:09:07.137Z,0.75
2024-02-24T14:11:34.741Z,0.60
2024-02-24T14:14:01.542Z,1.17
2024-02-24T14:16:28.478Z,2.55
2024-02-24T14:18:55.411Z,0.93
2024-02-24T14:21:24.570Z,1.58
2024-02-24T14:23:54.756Z,2.00
2024-02-24T14:26:21.651Z,0.93
2024-02-24T14:28:59.430Z,2.97
2024-02-24T14:31:28.472Z,0.80
2024-02-24T14:33:55.236Z,2.25
2024-02-24T14:36:21.897Z,4.35
2024-02-24T14:38:48.498Z,1.38
2024-02-24T14:41:15.425Z,1.35
2024-02-24T14:43:42.043Z,1.52
2024-02-24T14:46:08.574Z,1.10
2024-02-24T14:48:36.118Z,1.83
2024-02-24T14:51:03.122Z,1.48
2024-02-24T14:53:29.915Z,1.13
2024-02-24T14:55:56.485Z,1.05
2024-02-24T14:58:23.100Z,3.25
2024-02-24T15:00:49.721Z,1.00
2024-02-24T15:03:16.817Z,1.50
2024-02-24T15:05:43.745Z,2.22
2024-02-24T15:08:10.353Z,2.20
2024-02-24T15:10:37.067Z,2.03
2024-02-24T15:13:03.953Z,2.55
2024-02-24T15:15:30.713Z,1.75
2024-02-24T15:17:59.746Z,2.03
2024-02-24T15:20:26.838Z,3.03
2024-02-24T15:22:53.537Z,1.58
2024-02-24T15:25:20.252Z,0.82
2024-02-24T15:27:46.867Z,1.88
2024-02-24T15:30:13.843Z,2.13
2024-02-24T15:32:40.592Z,2.22
2024-02-24T15:35:07.921Z,2.63
2024-02-24T15:37:36.381Z,1.77
2024-02-24T15:40:09.056Z,1.50
2024-02-24T15:42:36.476Z,1.48
2024-02-24T15:45:04.424Z,1.30
2024-02-24T15:47:31.346Z,5.30
2024-02-24T15:49:58.159Z,2.28
2024-02-24T15:52:24.809Z,2.47
2024-02-24T15:54:51.437Z,0.80
2024-02-24T15:57:18.280Z,0.43
2024-02-24T15:59:45.036Z,0.93
2024-02-24T16:02:11.685Z,1.85
2024-02-24T16:04:38.503Z,1.33
2024-02-24T16:07:06.785Z,0.95
2024-02-24T16:09:36.045Z,1.83
2024-02-24T16:12:03.472Z,3.08
2024-02-24T16:14:30.225Z,2.00
2024-02-24T16:16:57.032Z,1.08
2024-02-24T16:19:23.709Z,2.33
2024-02-24T16:21:50.316Z,1.65
2024-02-24T16:24:16.959Z,1.75
2024-02-24T16:26:43.548Z,3.67
2024-02-24T16:29:10.140Z,1.65
2024-02-24T16:31:36.720Z,1.77
2024-02-24T16:34:03.551Z,1.65
2024-02-24T16:36:30.230Z,4.05
2024-02-24T16:38:57.363Z,1.55
2024-02-24T16:41:24.296Z,0.88
2024-02-24T16:43:50.846Z,1.85
2024-02-24T16:46:17.632Z,1.50
2024-02-24T16:48:45.241Z,2.63
2024-02-24T16:51:13.911Z,3.08
2024-02-24T16:53:40.535Z,6.25
2024-02-24T16:56:11.549Z,4.28
2024-02-24T16:58:38.189Z,5.72
2024-02-24T17:01:05.069Z,9.23
2024-02-24T17:03:32.211Z,7.28
2024-02-24T17:05:59.386Z,11.48
2024-02-24T17:08:26.081Z,6.95
2024-02-24T17:10:52.836Z,6.53
2024-02-24T17:13:19.472Z,6.00
2024-02-24T17:15:46.300Z,2.70
2024-02-24T17:18:18.424Z,3.65
2024-02-24T17:20:48.152Z,3.20
2024-02-24T17:23:15.478Z,2.92
2024-02-24T17:25:42.240Z,3.30
2024-02-24T17:28:10.193Z,3.25
2024-02-24T17:30:37.248Z,1.70
2024-02-24T17:33:05.013Z,2.53
2024-02-24T17:35:31.944Z,2.60
2024-02-24T17:37:59.805Z,2.20
2024-02-24T17:40:26.742Z,2.20
2024-02-24T17:42:53.278Z,2.33
2024-02-24T17:45:19.940Z,3.63
2024-02-24T17:47:46.667Z,2.67
2024-02-24T17:50:13.283Z,2.42
2024-02-24T17:52:39.916Z,2.15
2024-02-24T17:55:06.936Z,4.70
2024-02-24T17:57:33.560Z,1.60
2024-02-24T18:00:00.372Z,1.65
2024-02-24T18:02:27.122Z,2.25
2024-02-24T18:04:53.652Z,1.08
2024-02-24T18:07:20.211Z,0.50
2024-02-24T18:09:46.723Z,1.02
2024-02-24T18:12:13.438Z,1.05
2024-02-24T18:14:42.649Z,4.03
2024-02-24T18:17:09.446Z,1.15
2024-02-24T18:19:36.246Z,1.00
2024-02-24T18:22:02.981Z,1.33
2024-02-24T18:24:29.510Z,2.30
2024-02-24T18:26:56.388Z,0.90
2024-02-24T18:29:23.059Z,1.95
2024-02-24T18:31:49.690Z,1.48
2024-02-24T18:34:17.309Z,2.88
2024-02-24T18:36:44.108Z,1.45
2024-02-24T18:39:10.790Z,1.90
2024-02-24T18:41:37.454Z,2.33
2024-02-24T18:44:04.818Z,2.90
2024-02-24T18:46:32.164Z,1.27
2024-02-24T18:48:58.961Z,1.60
2024-02-24T18:51:25.655Z,2.75
2024-02-24T18:53:52.382Z,1.90
2024-02-24T18:56:19.082Z,1.13
2024-02-24T18:58:45.671Z,1.52
2024-02-24T19:01:12.330Z,1.48
2024-02-24T19:03:39.364Z,2.88
2024-02-24T19:06:06.224Z,1.30
2024-02-24T19:08:32.850Z,1.65
2024-02-24T19:10:59.583Z,1.58
2024-02-24T19:13:26.292Z,1.45
2024-02-24T19:15:53.927Z,2.15
2024-02-24T19:18:21.106Z,1.80
2024-02-24T19:20:47.942Z,3.38
2024-02-24T19:23:16.510Z,2.17
2024-02-24T19:25:46.275Z,2.13
2024-02-24T19:28:12.804Z,1.63
2024-02-24T19:30:39.327Z,2.63
2024-02-24T19:33:06.193Z,2.13
2024-02-24T19:35:33.037Z,3.65
2024-02-24T19:37:59.881Z,4.70
2024-02-24T19:40:26.518Z,3.88
2024-02-24T19:42:54.939Z,2.58
2024-02-24T19:45:21.615Z,2.88
2024-02-24T19:47:48.418Z,2.75
2024-02-24T19:50:15.220Z,2.00
2024-02-24T19:52:42.410Z,3.80
2024-02-24T19:55:09.165Z,2.55
2024-02-24T19:57:36.089Z,2.83
2024-02-24T20:00:04.936Z,2.67
2024-02-24T20:02:37.914Z,2.90
2024-02-24T20:05:04.967Z,2.08
2024-02-24T20:07:31.554Z,2.60
2024-02-24T20:09:58.175Z,4.65
2024-02-24T20:12:24.742Z,2.20
2024-02-24T20:14:51.413Z,4.72
2024-02-24T20:17:18.893Z,1.73
2024-02-24T20:19:46.994Z,3.05
2024-02-24T20:22:14.126Z,1.70
2024-02-24T20:24:40.805Z,2.72
2024-02-24T20:27:07.493Z,1.88
2024-02-24T20:29:34.331Z,3.20
2024-02-24T20:32:00.887Z,2.25
2024-02-24T20:34:27.724Z,2.58
2024-02-24T20:36:54.390Z,2.13
2024-02-24T20:39:21.409Z,5.15
2024-02-24T20:41:48.010Z,2.67
2024-02-24T20:44:14.715Z,4.00
2024-02-24T20:46:47.544Z,2.28
2024-02-24T20:49:18.456Z,2.67
2024-02-24T20:51:45.013Z,3.28
2024-02-24T20:54:11.615Z,4.10
2024-02-24T20:56:38.237Z,3.72
2024-02-24T20:59:04.804Z,3.75
2024-02-24T21:01:31.558Z,3.05
2024-02-24T21:03:58.278Z,4.22
2024-02-24T21:06:25.976Z,4.20
2024-02-24T21:08:52.642Z,6.38
2024-02-24T21:11:19.318Z,5.03
2024-02-24T21:13:45.950Z,5.10
2024-02-24T21:16:12.695Z,4.93
2024-02-24T21:18:39.410Z,3.63
2024-02-24T21:21:06.062Z,6.05
2024-02-24T21:23:33.243Z,6.13
2024-02-24T21:25:59.846Z,4.95
2024-02-24T21:28:26.345Z,4.88
2024-02-24T21:30:52.822Z,3.92
2024-02-24T21:33:19.645Z,4.00
2024-02-24T21:35:46.452Z,3.13
2024-02-24T21:38:13.093Z,6.70
2024-02-24T21:40:39.612Z,5.80
2024-02-24T21:43:06.225Z,7.40
2024-02-24T21:45:32.723Z,3.83
2024-02-24T21:47:59.590Z,6.88
2024-02-24T21:50:26.585Z,3.10
2024-02-24T21:52:53.491Z,3.97
2024-02-24T21:55:21.320Z,5.45
2024-02-24T21:57:48.075Z,6.38
2024-02-24T22:00:31.913Z,4.75
2024-02-24T22:03:01.975Z,6.00
2024-02-24T22:05:28.855Z,5.18
2024-02-24T22:07:55.591Z,5.75
2024-02-24T22:10:22.112Z,5.55
2024-02-24T22:12:48.673Z,5.15
2024-02-24T22:15:18.602Z,5.28
2024-02-24T22:17:45.359Z,6.47
2024-02-24T22:20:12.740Z,4.28
2024-02-24T22:22:39.263Z,5.63
2024-02-24T22:25:06.217Z,5.05
2024-02-24T22:27:32.879Z,5.68
2024-02-24T22:30:08.502Z,4.40
2024-02-24T22:32:42.825Z,4.72
2024-02-24T22:35:10.007Z,3.95
2024-02-24T22:37:37.307Z,5.18
2024-02-24T22:40:04.754Z,3.67
2024-02-24T22:42:31.981Z,4.85
2024-02-24T22:44:58.662Z,4.47
2024-02-24T22:47:25.589Z,4.13
2024-02-24T22:49:52.443Z,5.05
2024-02-24T22:52:19.158Z,4.03
2024-02-24T22:54:46.461Z,3.28
2024-02-24T22:57:13.117Z,4.60
2024-02-24T22:59:39.750Z,4.38
2024-02-24T23:02:06.497Z,5.47
2024-02-24T23:04:33.007Z,6.65
2024-02-24T23:06:59.747Z,5.72
2024-02-24T23:09:26.383Z,7.50
2024-02-24T23:11:53.463Z,6.85
2024-02-24T23:14:20.140Z,6.15
2024-02-24T23:16:46.702Z,5.43
2024-02-24T23:19:13.834Z,7.22
2024-02-24T23:21:41.755Z,5.32
2024-02-24T23:24:08.546Z,4.97
2024-02-24T23:26:35.361Z,5.90
2024-02-24T23:29:03.607Z,5.07
2024-02-24T23:31:30.277Z,5.53
2024-02-24T23:33:57.087Z,6.18
2024-02-24T23:36:23.756Z,5.18
2024-02-24T23:38:50.513Z,6.82
2024-02-24T23:41:17.303Z,6.28
2024-02-24T23:43:43.901Z,5.55
2024-02-24T23:46:10.444Z,5.03
2024-02-24T23:48:47.441Z,4.35
2024-02-24T23:51:14.327Z,5.85
2024-02-24T23:53:41.052Z,5.35
2024-02-24T23:56:08.138Z,5.80
2024-02-24T23:58:34.724Z,5.28
